Terminal Aerodrome Forecast
Issued by NWS

Current Version | Previous Version | Graphics & Text | Print | Product List | Glossary On
Versions: 1 2 3 4 5 6 7 8 9 10 11 12 13 14 15 16 17 18 19 20 21 22
000
FTUS41 KRLX 271700
TAFCKB
TAF
KCKB 271722Z 2718/2818 03005KT P6SM SKC
     FM280800 00000KT 5SM BR SCT250
     FM281200 00000KT 2SM BR SCT200
     FM281300 00000KT 4SM BR SCT200
     FM281500 00000KT P6SM SCT200=

USA.gov is the U.S. government's official web portal to all federal, state and local government web resources and services.